sensor_id;sensor_type;location;lat;lon;timestamp;P1;durP1;ratioP1;P2;durP2;ratioP2
76204;SDS011;64986;55.672;37.628;2023-02-28T00:00:48;5.78;;;3.22;;
76204;SDS011;64986;55.672;37.628;2023-02-28T00:03:14;9.95;;;5.22;;
76204;SDS011;64986;55.672;37.628;2023-02-28T00:05:39;6.35;;;3.60;;
76204;SDS011;64986;55.672;37.628;2023-02-28T00:08:06;6.80;;;3.35;;
76204;SDS011;64986;55.672;37.628;2023-02-28T00:10:32;6.60;;;2.78;;
76204;SDS011;64986;55.672;37.628;2023-02-28T00:12:59;5.78;;;3.15;;
76204;SDS011;64986;55.672;37.628;2023-02-28T00:15:27;5.43;;;3.53;;
76204;SDS011;64986;55.672;37.628;2023-02-28T00:17:53;8.50;;;4.50;;
76204;SDS011;64986;55.672;37.628;2023-02-28T00:20:18;7.10;;;3.22;;
76204;SDS011;64986;55.672;37.628;2023-02-28T00:22:46;5.72;;;3.65;;
76204;SDS011;64986;55.672;37.628;2023-02-28T00:25:16;9.10;;;4.50;;
76204;SDS011;64986;55.672;37.628;2023-02-28T00:27:44;8.15;;;3.47;;
76204;SDS011;64986;55.672;37.628;2023-02-28T00:30:11;8.52;;;4.20;;
76204;SDS011;64986;55.672;37.628;2023-02-28T00:32:38;11.07;;;5.70;;
76204;SDS011;64986;55.672;37.628;2023-02-28T00:35:04;5.53;;;2.55;;
76204;SDS011;64986;55.672;37.628;2023-02-28T00:37:31;9.38;;;5.68;;
76204;SDS011;64986;55.672;37.628;2023-02-28T00:39:57;6.22;;;3.42;;
76204;SDS011;64986;55.672;37.628;2023-02-28T00:42:22;6.47;;;2.83;;
76204;SDS011;64986;55.672;37.628;2023-02-28T00:44:48;9.63;;;5.35;;
76204;SDS011;64986;55.672;37.628;2023-02-28T00:47:14;8.23;;;3.28;;
76204;SDS011;64986;55.672;37.628;2023-02-28T00:49:39;4.43;;;2.38;;
76204;SDS011;64986;55.672;37.628;2023-02-28T00:52:05;11.02;;;5.43;;
76204;SDS011;64986;55.672;37.628;2023-02-28T00:54:30;9.95;;;5.90;;
76204;SDS011;64986;55.672;37.628;2023-02-28T00:56:56;7.40;;;2.97;;
76204;SDS011;64986;55.672;37.628;2023-02-28T00:59:21;4.35;;;2.70;;
76204;SDS011;64986;55.672;37.628;2023-02-28T01:01:47;12.13;;;6.05;;
76204;SDS011;64986;55.672;37.628;2023-02-28T01:04:13;4.28;;;2.00;;
76204;SDS011;64986;55.672;37.628;2023-02-28T01:06:39;9.27;;;4.18;;
76204;SDS011;64986;55.672;37.628;2023-02-28T01:09:05;6.10;;;3.90;;
76204;SDS011;64986;55.672;37.628;2023-02-28T01:11:32;8.43;;;4.60;;
76204;SDS011;64986;55.672;37.628;2023-02-28T01:13:58;17.08;;;6.90;;
76204;SDS011;64986;55.672;37.628;2023-02-28T01:16:24;5.95;;;3.25;;
76204;SDS011;64986;55.672;37.628;2023-02-28T01:18:49;8.93;;;3.17;;
76204;SDS011;64986;55.672;37.628;2023-02-28T01:21:17;13.43;;;7.25;;
76204;SDS011;64986;55.672;37.628;2023-02-28T01:23:44;13.73;;;6.10;;
76204;SDS011;64986;55.672;37.628;2023-02-28T01:26:12;11.48;;;5.50;;
76204;SDS011;64986;55.672;37.628;2023-02-28T01:28:42;14.75;;;6.45;;
76204;SDS011;64986;55.672;37.628;2023-02-28T01:31:08;8.35;;;4.45;;
76204;SDS011;64986;55.672;37.628;2023-02-28T01:33:34;10.10;;;4.15;;
76204;SDS011;64986;55.672;37.628;2023-02-28T01:36:04;4.40;;;2.60;;
76204;SDS011;64986;55.672;37.628;2023-02-28T01:38:33;9.25;;;4.88;;
76204;SDS011;64986;55.672;37.628;2023-02-28T01:40:59;9.95;;;5.25;;
76204;SDS011;64986;55.672;37.628;2023-02-28T01:43:26;9.00;;;4.60;;
76204;SDS011;64986;55.672;37.628;2023-02-28T01:45:54;8.75;;;4.22;;
76204;SDS011;64986;55.672;37.628;2023-02-28T01:48:24;8.18;;;4.30;;
76204;SDS011;64986;55.672;37.628;2023-02-28T01:50:58;7.10;;;4.28;;
76204;SDS011;64986;55.672;37.628;2023-02-28T01:53:32;6.05;;;3.72;;
76204;SDS011;64986;55.672;37.628;2023-02-28T01:56:03;8.38;;;4.80;;
76204;SDS011;64986;55.672;37.628;2023-02-28T01:58:31;7.32;;;2.92;;
76204;SDS011;64986;55.672;37.628;2023-02-28T02:00:57;9.80;;;4.95;;
76204;SDS011;64986;55.672;37.628;2023-02-28T02:03:22;9.13;;;5.47;;
76204;SDS011;64986;55.672;37.628;2023-02-28T02:05:48;10.35;;;5.32;;
76204;SDS011;64986;55.672;37.628;2023-02-28T02:08:21;9.27;;;3.72;;
76204;SDS011;64986;55.672;37.628;2023-02-28T02:19:35;7.43;;;4.15;;
76204;SDS011;64986;55.672;37.628;2023-02-28T02:22:33;7.40;;;4.38;;
76204;SDS011;64986;55.672;37.628;2023-02-28T02:27:48;6.40;;;3.20;;
76204;SDS011;64986;55.672;37.628;2023-02-28T02:38:29;12.20;;;5.22;;
76204;SDS011;64986;55.672;37.628;2023-02-28T02:43:53;9.52;;;5.25;;
76204;SDS011;64986;55.672;37.628;2023-02-28T02:46:28;6.40;;;2.83;;
76204;SDS011;64986;55.672;37.628;2023-02-28T02:48:59;6.88;;;3.72;;
76204;SDS011;64986;55.672;37.628;2023-02-28T02:51:28;6.00;;;3.35;;
76204;SDS011;64986;55.672;37.628;2023-02-28T02:54:19;4.70;;;1.88;;
76204;SDS011;64986;55.672;37.628;2023-02-28T02:56:46;8.85;;;4.60;;
76204;SDS011;64986;55.672;37.628;2023-02-28T02:59:13;7.20;;;4.35;;
76204;SDS011;64986;55.672;37.628;2023-02-28T03:01:50;8.73;;;5.25;;
76204;SDS011;64986;55.672;37.628;2023-02-28T03:04:19;8.70;;;4.38;;
76204;SDS011;64986;55.672;37.628;2023-02-28T03:06:47;7.93;;;4.55;;
76204;SDS011;64986;55.672;37.628;2023-02-28T03:09:13;6.35;;;3.65;;
76204;SDS011;64986;55.672;37.628;2023-02-28T03:11:39;7.85;;;4.22;;
76204;SDS011;64986;55.672;37.628;2023-02-28T03:14:11;5.55;;;3.47;;
76204;SDS011;64986;55.672;37.628;2023-02-28T03:24:33;5.70;;;3.80;;
76204;SDS011;64986;55.672;37.628;2023-02-28T03:27:06;6.53;;;3.50;;
76204;SDS011;64986;55.672;37.628;2023-02-28T03:29:44;7.35;;;3.83;;
76204;SDS011;64986;55.672;37.628;2023-02-28T03:32:18;7.30;;;3.58;;
76204;SDS011;64986;55.672;37.628;2023-02-28T03:37:40;4.68;;;3.13;;
76204;SDS011;64986;55.672;37.628;2023-02-28T03:40:14;4.55;;;2.67;;
76204;SDS011;64986;55.672;37.628;2023-02-28T03:42:46;8.27;;;4.07;;
76204;SDS011;64986;55.672;37.628;2023-02-28T03:47:49;4.90;;;3.47;;
76204;SDS011;64986;55.672;37.628;2023-02-28T03:52:48;4.32;;;2.33;;
76204;SDS011;64986;55.672;37.628;2023-02-28T03:55:16;5.47;;;3.08;;
76204;SDS011;64986;55.672;37.628;2023-02-28T03:57:47;4.93;;;2.45;;
76204;SDS011;64986;55.672;37.628;2023-02-28T04:00:27;5.18;;;2.90;;
76204;SDS011;64986;55.672;37.628;2023-02-28T04:02:58;4.20;;;2.38;;
76204;SDS011;64986;55.672;37.628;2023-02-28T04:05:24;4.97;;;2.72;;
76204;SDS011;64986;55.672;37.628;2023-02-28T04:07:50;5.72;;;2.83;;
76204;SDS011;64986;55.672;37.628;2023-02-28T04:10:16;5.03;;;2.80;;
76204;SDS011;64986;55.672;37.628;2023-02-28T04:12:42;3.28;;;2.15;;
76204;SDS011;64986;55.672;37.628;2023-02-28T04:15:07;3.60;;;2.08;;
76204;SDS011;64986;55.672;37.628;2023-02-28T04:17:33;4.28;;;2.55;;
76204;SDS011;64986;55.672;37.628;2023-02-28T04:19:59;4.53;;;2.22;;
76204;SDS011;64986;55.672;37.628;2023-02-28T04:22:24;6.38;;;3.30;;
76204;SDS011;64986;55.672;37.628;2023-02-28T04:24:53;4.63;;;2.25;;
76204;SDS011;64986;55.672;37.628;2023-02-28T04:27:20;5.03;;;1.83;;
76204;SDS011;64986;55.672;37.628;2023-02-28T04:29:46;4.13;;;2.20;;
76204;SDS011;64986;55.672;37.628;2023-02-28T04:32:12;4.07;;;2.33;;
76204;SDS011;64986;55.672;37.628;2023-02-28T04:34:38;3.58;;;2.03;;
76204;SDS011;64986;55.672;37.628;2023-02-28T04:37:03;6.10;;;3.53;;
76204;SDS011;64986;55.672;37.628;2023-02-28T04:39:29;3.45;;;1.73;;
76204;SDS011;64986;55.672;37.628;2023-02-28T04:41:55;5.53;;;2.83;;
76204;SDS011;64986;55.672;37.628;2023-02-28T04:44:21;3.80;;;2.60;;
76204;SDS011;64986;55.672;37.628;2023-02-28T04:46:47;5.82;;;2.90;;
76204;SDS011;64986;55.672;37.628;2023-02-28T04:49:14;3.67;;;2.20;;
76204;SDS011;64986;55.672;37.628;2023-02-28T04:51:40;3.22;;;1.67;;
76204;SDS011;64986;55.672;37.628;2023-02-28T04:54:06;4.68;;;2.72;;
76204;SDS011;64986;55.672;37.628;2023-02-28T04:56:32;5.85;;;1.90;;
76204;SDS011;64986;55.672;37.628;2023-02-28T04:58:58;3.83;;;2.00;;
76204;SDS011;64986;55.672;37.628;2023-02-28T05:01:45;5.47;;;3.17;;
76204;SDS011;64986;55.672;37.628;2023-02-28T05:04:12;4.97;;;3.25;;
76204;SDS011;64986;55.672;37.628;2023-02-28T05:06:38;3.30;;;1.75;;
76204;SDS011;64986;55.672;37.628;2023-02-28T05:09:04;5.28;;;2.33;;
76204;SDS011;64986;55.672;37.628;2023-02-28T05:11:30;3.88;;;2.22;;
76204;SDS011;64986;55.672;37.628;2023-02-28T05:14:04;5.53;;;2.40;;
76204;SDS011;64986;55.672;37.628;2023-02-28T05:16:31;2.55;;;1.70;;
76204;SDS011;64986;55.672;37.628;2023-02-28T05:18:57;2.70;;;1.90;;
76204;SDS011;64986;55.672;37.628;2023-02-28T05:21:25;5.95;;;2.85;;
76204;SDS011;64986;55.672;37.628;2023-02-28T05:23:53;6.18;;;3.33;;
76204;SDS011;64986;55.672;37.628;2023-02-28T05:26:20;4.60;;;2.38;;
76204;SDS011;64986;55.672;37.628;2023-02-28T05:28:46;4.55;;;2.45;;
76204;SDS011;64986;55.672;37.628;2023-02-28T05:31:12;3.90;;;1.52;;
76204;SDS011;64986;55.672;37.628;2023-02-28T05:33:38;4.10;;;1.90;;
76204;SDS011;64986;55.672;37.628;2023-02-28T05:36:04;5.68;;;3.25;;
76204;SDS011;64986;55.672;37.628;2023-02-28T05:38:30;3.92;;;1.42;;
76204;SDS011;64986;55.672;37.628;2023-02-28T05:40:56;3.78;;;2.10;;
76204;SDS011;64986;55.672;37.628;2023-02-28T05:43:22;2.17;;;1.15;;
76204;SDS011;64986;55.672;37.628;2023-02-28T05:45:47;3.30;;;2.10;;
76204;SDS011;64986;55.672;37.628;2023-02-28T05:48:13;4.88;;;1.73;;
76204;SDS011;64986;55.672;37.628;2023-02-28T05:50:38;4.18;;;2.25;;
76204;SDS011;64986;55.672;37.628;2023-02-28T05:53:04;4.00;;;1.50;;
76204;SDS011;64986;55.672;37.628;2023-02-28T05:55:30;6.15;;;2.70;;
76204;SDS011;64986;55.672;37.628;2023-02-28T05:57:55;5.82;;;3.08;;
76204;SDS011;64986;55.672;37.628;2023-02-28T06:00:21;2.60;;;1.73;;
76204;SDS011;64986;55.672;37.628;2023-02-28T06:02:47;6.32;;;2.92;;
76204;SDS011;64986;55.672;37.628;2023-02-28T06:05:16;3.47;;;2.22;;
76204;SDS011;64986;55.672;37.628;2023-02-28T06:07:43;4.20;;;2.30;;
76204;SDS011;64986;55.672;37.628;2023-02-28T06:10:12;5.15;;;2.83;;
76204;SDS011;64986;55.672;37.628;2023-02-28T06:12:38;5.07;;;2.85;;
76204;SDS011;64986;55.672;37.628;2023-02-28T06:15:06;3.40;;;1.70;;
76204;SDS011;64986;55.672;37.628;2023-02-28T06:17:33;5.80;;;1.80;;
76204;SDS011;64986;55.672;37.628;2023-02-28T06:19:58;4.40;;;2.05;;
76204;SDS011;64986;55.672;37.628;2023-02-28T06:22:24;3.80;;;1.98;;
76204;SDS011;64986;55.672;37.628;2023-02-28T06:24:49;6.30;;;2.58;;
76204;SDS011;64986;55.672;37.628;2023-02-28T06:27:15;4.93;;;1.92;;
76204;SDS011;64986;55.672;37.628;2023-02-28T06:29:40;2.38;;;1.42;;
76204;SDS011;64986;55.672;37.628;2023-02-28T06:32:06;4.40;;;3.40;;
76204;SDS011;64986;55.672;37.628;2023-02-28T06:34:32;6.20;;;3.13;;
76204;SDS011;64986;55.672;37.628;2023-02-28T06:36:58;2.95;;;1.70;;
76204;SDS011;64986;55.672;37.628;2023-02-28T06:39:27;4.65;;;2.67;;
76204;SDS011;64986;55.672;37.628;2023-02-28T06:41:56;5.53;;;2.63;;
76204;SDS011;64986;55.672;37.628;2023-02-28T06:44:22;5.43;;;3.15;;
76204;SDS011;64986;55.672;37.628;2023-02-28T06:46:48;3.35;;;2.10;;
76204;SDS011;64986;55.672;37.628;2023-02-28T06:49:14;5.05;;;2.42;;
76204;SDS011;64986;55.672;37.628;2023-02-28T06:51:41;4.50;;;1.85;;
76204;SDS011;64986;55.672;37.628;2023-02-28T06:54:10;3.40;;;2.10;;
76204;SDS011;64986;55.672;37.628;2023-02-28T06:56:36;3.63;;;2.40;;
76204;SDS011;64986;55.672;37.628;2023-02-28T06:59:02;3.70;;;2.00;;
76204;SDS011;64986;55.672;37.628;2023-02-28T07:01:28;3.70;;;2.15;;
76204;SDS011;64986;55.672;37.628;2023-02-28T07:03:54;3.60;;;2.03;;
76204;SDS011;64986;55.672;37.628;2023-02-28T07:06:23;4.35;;;2.40;;
76204;SDS011;64986;55.672;37.628;2023-02-28T07:08:50;5.30;;;2.17;;
76204;SDS011;64986;55.672;37.628;2023-02-28T07:11:18;3.72;;;2.65;;
76204;SDS011;64986;55.672;37.628;2023-02-28T07:13:44;3.97;;;1.90;;
76204;SDS011;64986;55.672;37.628;2023-02-28T07:16:11;2.70;;;1.60;;
76204;SDS011;64986;55.672;37.628;2023-02-28T07:18:37;5.32;;;2.22;;
76204;SDS011;64986;55.672;37.628;2023-02-28T07:21:04;5.68;;;2.80;;
76204;SDS011;64986;55.672;37.628;2023-02-28T07:23:31;3.55;;;2.00;;
76204;SDS011;64986;55.672;37.628;2023-02-28T07:25:56;5.38;;;2.67;;
76204;SDS011;64986;55.672;37.628;2023-02-28T07:28:22;4.35;;;2.28;;
76204;SDS011;64986;55.672;37.628;2023-02-28T07:30:48;3.13;;;1.65;;
76204;SDS011;64986;55.672;37.628;2023-02-28T07:33:13;3.80;;;1.70;;
76204;SDS011;64986;55.672;37.628;2023-02-28T07:35:39;6.03;;;2.20;;
76204;SDS011;64986;55.672;37.628;2023-02-28T07:38:05;2.75;;;1.80;;
76204;SDS011;64986;55.672;37.628;2023-02-28T07:40:32;4.55;;;3.15;;
76204;SDS011;64986;55.672;37.628;2023-02-28T07:43:01;3.28;;;2.08;;
76204;SDS011;64986;55.672;37.628;2023-02-28T07:45:28;7.65;;;3.53;;
76204;SDS011;64986;55.672;37.628;2023-02-28T07:47:54;3.53;;;1.98;;
76204;SDS011;64986;55.672;37.628;2023-02-28T07:50:21;2.83;;;1.70;;
76204;SDS011;64986;55.672;37.628;2023-02-28T07:52:47;4.82;;;2.45;;
76204;SDS011;64986;55.672;37.628;2023-02-28T07:55:12;4.80;;;2.05;;
76204;SDS011;64986;55.672;37.628;2023-02-28T07:57:38;2.55;;;1.50;;
76204;SDS011;64986;55.672;37.628;2023-02-28T08:00:05;3.50;;;1.77;;
76204;SDS011;64986;55.672;37.628;2023-02-28T08:02:34;4.68;;;1.50;;
76204;SDS011;64986;55.672;37.628;2023-02-28T08:05:00;4.50;;;2.47;;
76204;SDS011;64986;55.672;37.628;2023-02-28T08:07:26;5.53;;;2.70;;
76204;SDS011;64986;55.672;37.628;2023-02-28T08:09:52;6.00;;;2.45;;
76204;SDS011;64986;55.672;37.628;2023-02-28T08:12:17;3.42;;;2.05;;
76204;SDS011;64986;55.672;37.628;2023-02-28T08:14:43;5.35;;;2.75;;
76204;SDS011;64986;55.672;37.628;2023-02-28T08:17:09;7.20;;;2.00;;
76204;SDS011;64986;55.672;37.628;2023-02-28T08:19:36;6.25;;;2.95;;
76204;SDS011;64986;55.672;37.628;2023-02-28T08:22:01;3.78;;;2.13;;
76204;SDS011;64986;55.672;37.628;2023-02-28T08:24:27;3.00;;;1.67;;
76204;SDS011;64986;55.672;37.628;2023-02-28T08:26:53;5.25;;;2.22;;
76204;SDS011;64986;55.672;37.628;2023-02-28T08:29:19;2.72;;;1.58;;
76204;SDS011;64986;55.672;37.628;2023-02-28T08:31:44;6.40;;;2.33;;
76204;SDS011;64986;55.672;37.628;2023-02-28T08:34:11;4.35;;;1.67;;
76204;SDS011;64986;55.672;37.628;2023-02-28T08:36:39;3.45;;;1.95;;
76204;SDS011;64986;55.672;37.628;2023-02-28T08:39:05;4.85;;;2.13;;
76204;SDS011;64986;55.672;37.628;2023-02-28T08:41:31;4.82;;;2.05;;
76204;SDS011;64986;55.672;37.628;2023-02-28T08:43:57;3.78;;;2.42;;
76204;SDS011;64986;55.672;37.628;2023-02-28T08:46:23;4.88;;;2.53;;
76204;SDS011;64986;55.672;37.628;2023-02-28T08:48:51;6.38;;;2.75;;
76204;SDS011;64986;55.672;37.628;2023-02-28T08:51:18;2.45;;;1.33;;
76204;SDS011;64986;55.672;37.628;2023-02-28T08:53:47;3.60;;;2.38;;
76204;SDS011;64986;55.672;37.628;2023-02-28T08:56:14;4.63;;;2.80;;
76204;SDS011;64986;55.672;37.628;2023-02-28T08:58:41;3.97;;;1.88;;
76204;SDS011;64986;55.672;37.628;2023-02-28T09:01:18;2.00;;;1.30;;
76204;SDS011;64986;55.672;37.628;2023-02-28T09:03:46;7.18;;;3.65;;
76204;SDS011;64986;55.672;37.628;2023-02-28T09:06:13;3.13;;;1.40;;
76204;SDS011;64986;55.672;37.628;2023-02-28T09:08:40;3.30;;;1.75;;
76204;SDS011;64986;55.672;37.628;2023-02-28T09:11:06;5.65;;;2.58;;
76204;SDS011;64986;55.672;37.628;2023-02-28T09:13:32;5.30;;;2.97;;
76204;SDS011;64986;55.672;37.628;2023-02-28T09:16:02;5.35;;;3.33;;
76204;SDS011;64986;55.672;37.628;2023-02-28T09:18:29;8.02;;;2.67;;
76204;SDS011;64986;55.672;37.628;2023-02-28T09:20:55;4.00;;;1.83;;
76204;SDS011;64986;55.672;37.628;2023-02-28T09:23:21;3.75;;;1.65;;
76204;SDS011;64986;55.672;37.628;2023-02-28T09:25:50;6.38;;;3.28;;
76204;SDS011;64986;55.672;37.628;2023-02-28T09:28:17;3.05;;;1.63;;
76204;SDS011;64986;55.672;37.628;2023-02-28T09:30:47;2.28;;;1.50;;
76204;SDS011;64986;55.672;37.628;2023-02-28T09:33:13;4.20;;;1.58;;
76204;SDS011;64986;55.672;37.628;2023-02-28T09:35:40;6.03;;;3.22;;
76204;SDS011;64986;55.672;37.628;2023-02-28T09:38:07;3.63;;;2.03;;
76204;SDS011;64986;55.672;37.628;2023-02-28T09:40:37;4.15;;;2.30;;
76204;SDS011;64986;55.672;37.628;2023-02-28T09:43:13;4.53;;;2.45;;
76204;SDS011;64986;55.672;37.628;2023-02-28T09:45:41;5.30;;;3.20;;
76204;SDS011;64986;55.672;37.628;2023-02-28T09:48:14;6.07;;;2.28;;
76204;SDS011;64986;55.672;37.628;2023-02-28T09:50:48;5.00;;;2.22;;
76204;SDS011;64986;55.672;37.628;2023-02-28T09:56:04;2.65;;;1.55;;
76204;SDS011;64986;55.672;37.628;2023-02-28T10:01:27;2.42;;;1.50;;
76204;SDS011;64986;55.672;37.628;2023-02-28T10:06:46;3.03;;;1.60;;
76204;SDS011;64986;55.672;37.628;2023-02-28T10:09:19;4.70;;;2.17;;
76204;SDS011;64986;55.672;37.628;2023-02-28T10:11:52;1.27;;;0.82;;
76204;SDS011;64986;55.672;37.628;2023-02-28T10:14:23;4.38;;;2.20;;
76204;SDS011;64986;55.672;37.628;2023-02-28T10:22:00;3.10;;;2.17;;
76204;SDS011;64986;55.672;37.628;2023-02-28T10:24:35;3.97;;;2.80;;
76204;SDS011;64986;55.672;37.628;2023-02-28T10:27:24;4.60;;;1.70;;
76204;SDS011;64986;55.672;37.628;2023-02-28T10:29:57;4.82;;;2.55;;
76204;SDS011;64986;55.672;37.628;2023-02-28T10:37:46;6.43;;;2.63;;
76204;SDS011;64986;55.672;37.628;2023-02-28T10:42:57;4.97;;;2.53;;
76204;SDS011;64986;55.672;37.628;2023-02-28T10:45:25;3.28;;;1.70;;
76204;SDS011;64986;55.672;37.628;2023-02-28T10:47:57;4.03;;;1.92;;
76204;SDS011;64986;55.672;37.628;2023-02-28T10:58:51;4.07;;;1.08;;
76204;SDS011;64986;55.672;37.628;2023-02-28T11:01:21;3.78;;;1.90;;
76204;SDS011;64986;55.672;37.628;2023-02-28T11:03:50;4.88;;;2.78;;
76204;SDS011;64986;55.672;37.628;2023-02-28T11:06:17;4.55;;;2.72;;
76204;SDS011;64986;55.672;37.628;2023-02-28T11:08:49;3.75;;;2.17;;
76204;SDS011;64986;55.672;37.628;2023-02-28T11:11:17;3.25;;;2.10;;
76204;SDS011;64986;55.672;37.628;2023-02-28T11:13:45;6.40;;;2.22;;
76204;SDS011;64986;55.672;37.628;2023-02-28T11:16:13;3.33;;;2.30;;
76204;SDS011;64986;55.672;37.628;2023-02-28T11:18:58;5.35;;;2.50;;
76204;SDS011;64986;55.672;37.628;2023-02-28T11:21:32;4.63;;;2.53;;
76204;SDS011;64986;55.672;37.628;2023-02-28T11:24:44;4.20;;;1.55;;
76204;SDS011;64986;55.672;37.628;2023-02-28T11:26:59;3.40;;;2.03;;
76204;SDS011;64986;55.672;37.628;2023-02-28T11:29:25;5.05;;;1.95;;
76204;SDS011;64986;55.672;37.628;2023-02-28T11:32:03;2.38;;;1.45;;
76204;SDS011;64986;55.672;37.628;2023-02-28T11:34:35;4.43;;;1.75;;
76204;SDS011;64986;55.672;37.628;2023-02-28T11:37:02;4.10;;;1.92;;
76204;SDS011;64986;55.672;37.628;2023-02-28T11:39:31;4.53;;;2.40;;
76204;SDS011;64986;55.672;37.628;2023-02-28T11:47:47;4.63;;;2.60;;
76204;SDS011;64986;55.672;37.628;2023-02-28T12:02:01;6.32;;;3.33;;
76204;SDS011;64986;55.672;37.628;2023-02-28T12:18:30;6.95;;;2.08;;
76204;SDS011;64986;55.672;37.628;2023-02-28T12:21:21;3.50;;;2.25;;
76204;SDS011;64986;55.672;37.628;2023-02-28T12:24:08;4.30;;;2.28;;
76204;SDS011;64986;55.672;37.628;2023-02-28T12:26:40;3.25;;;1.70;;
76204;SDS011;64986;55.672;37.628;2023-02-28T12:29:19;4.15;;;2.75;;
76204;SDS011;64986;55.672;37.628;2023-02-28T12:31:53;7.05;;;2.63;;
76204;SDS011;64986;55.672;37.628;2023-02-28T12:34:37;8.50;;;2.40;;
76204;SDS011;64986;55.672;37.628;2023-02-28T12:37:10;3.22;;;2.47;;
76204;SDS011;64986;55.672;37.628;2023-02-28T12:39:55;4.72;;;3.20;;
76204;SDS011;64986;55.672;37.628;2023-02-28T12:42:39;5.55;;;2.20;;
76204;SDS011;64986;55.672;37.628;2023-02-28T12:47:40;4.88;;;2.63;;
76204;SDS011;64986;55.672;37.628;2023-02-28T12:50:10;3.25;;;2.17;;
76204;SDS011;64986;55.672;37.628;2023-02-28T13:00:27;3.67;;;1.73;;
76204;SDS011;64986;55.672;37.628;2023-02-28T13:11:02;4.60;;;3.03;;
76204;SDS011;64986;55.672;37.628;2023-02-28T13:13:29;5.78;;;3.40;;
76204;SDS011;64986;55.672;37.628;2023-02-28T13:15:56;3.20;;;1.95;;
76204;SDS011;64986;55.672;37.628;2023-02-28T13:18:30;5.35;;;2.30;;
76204;SDS011;64986;55.672;37.628;2023-02-28T13:20:58;3.05;;;1.65;;
76204;SDS011;64986;55.672;37.628;2023-02-28T13:26:07;4.10;;;2.60;;
76204;SDS011;64986;55.672;37.628;2023-02-28T13:34:27;4.55;;;2.17;;
76204;SDS011;64986;55.672;37.628;2023-02-28T13:37:20;3.08;;;1.70;;
76204;SDS011;64986;55.672;37.628;2023-02-28T13:47:31;5.63;;;3.13;;
76204;SDS011;64986;55.672;37.628;2023-02-28T13:53:55;3.22;;;1.70;;
76204;SDS011;64986;55.672;37.628;2023-02-28T13:58:27;5.55;;;3.28;;
76204;SDS011;64986;55.672;37.628;2023-02-28T14:06:34;5.88;;;3.22;;
76204;SDS011;64986;55.672;37.628;2023-02-28T14:09:15;4.60;;;1.45;;
76204;SDS011;64986;55.672;37.628;2023-02-28T14:15:27;5.30;;;3.38;;
76204;SDS011;64986;55.672;37.628;2023-02-28T14:18:05;3.15;;;2.10;;
76204;SDS011;64986;55.672;37.628;2023-02-28T14:20:57;2.60;;;1.65;;
76204;SDS011;64986;55.672;37.628;2023-02-28T14:31:58;3.53;;;2.22;;
76204;SDS011;64986;55.672;37.628;2023-02-28T14:37:03;1.75;;;1.30;;
76204;SDS011;64986;55.672;37.628;2023-02-28T14:39:30;5.43;;;2.83;;
76204;SDS011;64986;55.672;37.628;2023-02-28T14:41:57;5.05;;;2.58;;
76204;SDS011;64986;55.672;37.628;2023-02-28T14:44:30;7.55;;;2.17;;
76204;SDS011;64986;55.672;37.628;2023-02-28T14:46:57;4.53;;;2.00;;
76204;SDS011;64986;55.672;37.628;2023-02-28T14:49:30;2.00;;;1.50;;
76204;SDS011;64986;55.672;37.628;2023-02-28T14:54:31;5.85;;;1.60;;
76204;SDS011;64986;55.672;37.628;2023-02-28T14:56:57;2.78;;;1.08;;
76204;SDS011;64986;55.672;37.628;2023-02-28T14:59:24;3.42;;;1.70;;
76204;SDS011;64986;55.672;37.628;2023-02-28T15:02:17;4.45;;;2.42;;
76204;SDS011;64986;55.672;37.628;2023-02-28T15:04:43;3.75;;;2.38;;
76204;SDS011;64986;55.672;37.628;2023-02-28T15:07:14;3.33;;;2.15;;
76204;SDS011;64986;55.672;37.628;2023-02-28T15:09:40;5.35;;;1.58;;
76204;SDS011;64986;55.672;37.628;2023-02-28T15:12:06;2.90;;;1.73;;
76204;SDS011;64986;55.672;37.628;2023-02-28T15:14:42;3.25;;;2.45;;
76204;SDS011;64986;55.672;37.628;2023-02-28T15:17:11;2.58;;;1.55;;
76204;SDS011;64986;55.672;37.628;2023-02-28T15:19:46;4.03;;;2.08;;
76204;SDS011;64986;55.672;37.628;2023-02-28T15:22:17;3.05;;;2.15;;
76204;SDS011;64986;55.672;37.628;2023-02-28T15:24:47;3.83;;;1.55;;
76204;SDS011;64986;55.672;37.628;2023-02-28T15:27:25;4.07;;;2.60;;
76204;SDS011;64986;55.672;37.628;2023-02-28T15:29:58;4.90;;;2.10;;
76204;SDS011;64986;55.672;37.628;2023-02-28T15:32:29;1.88;;;1.35;;
76204;SDS011;64986;55.672;37.628;2023-02-28T15:34:59;2.92;;;1.95;;
76204;SDS011;64986;55.672;37.628;2023-02-28T15:40:14;4.07;;;2.15;;
76204;SDS011;64986;55.672;37.628;2023-02-28T15:42:42;4.97;;;2.45;;
76204;SDS011;64986;55.672;37.628;2023-02-28T15:45:26;3.08;;;1.40;;
76204;SDS011;64986;55.672;37.628;2023-02-28T15:48:00;3.88;;;1.80;;
76204;SDS011;64986;55.672;37.628;2023-02-28T15:50:27;4.95;;;2.40;;
76204;SDS011;64986;55.672;37.628;2023-02-28T15:52:53;2.38;;;1.52;;
76204;SDS011;64986;55.672;37.628;2023-02-28T15:57:51;6.50;;;2.10;;
76204;SDS011;64986;55.672;37.628;2023-02-28T16:00:20;3.22;;;1.88;;
76204;SDS011;64986;55.672;37.628;2023-02-28T16:02:48;4.60;;;1.20;;
76204;SDS011;64986;55.672;37.628;2023-02-28T16:08:00;3.83;;;2.25;;
76204;SDS011;64986;55.672;37.628;2023-02-28T16:10:36;2.50;;;1.60;;
76204;SDS011;64986;55.672;37.628;2023-02-28T16:13:02;2.47;;;1.80;;
76204;SDS011;64986;55.672;37.628;2023-02-28T16:15:28;3.35;;;1.65;;
76204;SDS011;64986;55.672;37.628;2023-02-28T16:17:57;3.65;;;1.83;;
76204;SDS011;64986;55.672;37.628;2023-02-28T16:20:28;3.00;;;1.40;;
76204;SDS011;64986;55.672;37.628;2023-02-28T16:22:55;3.80;;;1.50;;
76204;SDS011;64986;55.672;37.628;2023-02-28T16:25:26;2.47;;;1.85;;
76204;SDS011;64986;55.672;37.628;2023-02-28T16:27:59;3.65;;;2.10;;
76204;SDS011;64986;55.672;37.628;2023-02-28T16:30:26;2.70;;;1.70;;
76204;SDS011;64986;55.672;37.628;2023-02-28T16:32:54;1.85;;;0.75;;
76204;SDS011;64986;55.672;37.628;2023-02-28T16:35:20;6.00;;;1.67;;
76204;SDS011;64986;55.672;37.628;2023-02-28T16:37:46;3.88;;;2.10;;
76204;SDS011;64986;55.672;37.628;2023-02-28T16:40:16;2.58;;;1.77;;
76204;SDS011;64986;55.672;37.628;2023-02-28T16:42:43;1.45;;;1.05;;
76204;SDS011;64986;55.672;37.628;2023-02-28T16:45:17;2.20;;;1.52;;
76204;SDS011;64986;55.672;37.628;2023-02-28T16:47:46;2.22;;;1.27;;
76204;SDS011;64986;55.672;37.628;2023-02-28T16:50:17;2.13;;;1.45;;
76204;SDS011;64986;55.672;37.628;2023-02-28T16:52:44;1.60;;;0.80;;
76204;SDS011;64986;55.672;37.628;2023-02-28T16:55:10;1.45;;;1.23;;
76204;SDS011;64986;55.672;37.628;2023-02-28T16:57:36;1.90;;;1.38;;
76204;SDS011;64986;55.672;37.628;2023-02-28T17:00:02;3.15;;;1.38;;
76204;SDS011;64986;55.672;37.628;2023-02-28T17:02:29;2.72;;;1.88;;
76204;SDS011;64986;55.672;37.628;2023-02-28T17:04:55;2.00;;;1.20;;
76204;SDS011;64986;55.672;37.628;2023-02-28T17:07:20;2.10;;;1.40;;
76204;SDS011;64986;55.672;37.628;2023-02-28T17:09:46;1.67;;;1.30;;
76204;SDS011;64986;55.672;37.628;2023-02-28T17:12:11;3.30;;;1.33;;
76204;SDS011;64986;55.672;37.628;2023-02-28T17:14:37;2.90;;;1.60;;
76204;SDS011;64986;55.672;37.628;2023-02-28T17:17:06;1.88;;;0.80;;
76204;SDS011;64986;55.672;37.628;2023-02-28T17:19:32;2.08;;;1.15;;
76204;SDS011;64986;55.672;37.628;2023-02-28T17:22:01;2.25;;;1.00;;
76204;SDS011;64986;55.672;37.628;2023-02-28T17:24:28;1.80;;;0.85;;
76204;SDS011;64986;55.672;37.628;2023-02-28T17:26:53;3.90;;;1.55;;
76204;SDS011;64986;55.672;37.628;2023-02-28T17:29:20;1.40;;;0.88;;
76204;SDS011;64986;55.672;37.628;2023-02-28T17:31:46;1.02;;;0.63;;
76204;SDS011;64986;55.672;37.628;2023-02-28T17:34:12;1.38;;;0.60;;